Terminal Aerodrome Forecast
Issued by NWS Albuquerque, NM

Home | Current Version | Previous Version | Text Only | Print | Product List | Glossary On
Versions: 1 2 3 4 5 6 7 8 9 10 11 12
000
FTUS45 KABQ 190523
TAFABQ
TAF
KABQ 190523Z 1906/2006 11011KT P6SM FEW120
     FM191100 09006KT P6SM SCT120
     FM191800 20009KT P6SM SCT100
     FM200000 VRB15G25KT P6SM VCTS BKN100CB
     FM200300 10015G25KT P6SM VCSH BKN100=

USA.gov is the U.S. government's official web portal to all federal, state and local government web resources and services.